sensor_id;sensor_type;location;lat;lon;timestamp;P1;durP1;ratioP1;P2;durP2;ratioP2
78648;SDS011;67962;47.310;9.642;2023-04-25T00:01:24;9.00;;;3.63;;
78648;SDS011;67962;47.310;9.642;2023-04-25T00:03:50;7.75;;;3.10;;
78648;SDS011;67962;47.310;9.642;2023-04-25T00:06:16;11.63;;;3.80;;
78648;SDS011;67962;47.310;9.642;2023-04-25T00:08:42;7.45;;;3.28;;
78648;SDS011;67962;47.310;9.642;2023-04-25T00:11:08;6.10;;;2.83;;
78648;SDS011;67962;47.310;9.642;2023-04-25T00:13:34;4.43;;;2.50;;
78648;SDS011;67962;47.310;9.642;2023-04-25T00:15:59;5.45;;;2.80;;
78648;SDS011;67962;47.310;9.642;2023-04-25T00:18:27;5.25;;;3.10;;
78648;SDS011;67962;47.310;9.642;2023-04-25T00:20:54;3.90;;;2.67;;
78648;SDS011;67962;47.310;9.642;2023-04-25T00:23:20;6.72;;;2.40;;
78648;SDS011;67962;47.310;9.642;2023-04-25T00:25:49;4.57;;;2.30;;
78648;SDS011;67962;47.310;9.642;2023-04-25T00:28:15;4.40;;;2.72;;
78648;SDS011;67962;47.310;9.642;2023-04-25T00:30:42;4.75;;;1.88;;
78648;SDS011;67962;47.310;9.642;2023-04-25T00:33:08;3.53;;;1.85;;
78648;SDS011;67962;47.310;9.642;2023-04-25T00:35:34;6.18;;;2.03;;
78648;SDS011;67962;47.310;9.642;2023-04-25T00:38:00;4.15;;;1.80;;
78648;SDS011;67962;47.310;9.642;2023-04-25T00:40:26;3.15;;;1.88;;
78648;SDS011;67962;47.310;9.642;2023-04-25T00:42:52;3.70;;;1.83;;
78648;SDS011;67962;47.310;9.642;2023-04-25T00:45:18;4.10;;;2.30;;
78648;SDS011;67962;47.310;9.642;2023-04-25T00:47:44;3.33;;;2.00;;
78648;SDS011;67962;47.310;9.642;2023-04-25T00:50:11;2.90;;;1.85;;
78648;SDS011;67962;47.310;9.642;2023-04-25T00:52:37;4.80;;;2.10;;
78648;SDS011;67962;47.310;9.642;2023-04-25T00:55:05;3.13;;;1.92;;
78648;SDS011;67962;47.310;9.642;2023-04-25T00:57:32;4.18;;;1.77;;
78648;SDS011;67962;47.310;9.642;2023-04-25T00:59:58;5.35;;;1.88;;
78648;SDS011;67962;47.310;9.642;2023-04-25T01:02:24;3.45;;;1.80;;
78648;SDS011;67962;47.310;9.642;2023-04-25T01:04:51;2.33;;;1.70;;
78648;SDS011;67962;47.310;9.642;2023-04-25T01:07:17;3.13;;;1.70;;
78648;SDS011;67962;47.310;9.642;2023-04-25T01:09:43;3.47;;;1.80;;
78648;SDS011;67962;47.310;9.642;2023-04-25T01:12:09;3.53;;;2.13;;
78648;SDS011;67962;47.310;9.642;2023-04-25T01:14:35;3.72;;;2.20;;
78648;SDS011;67962;47.310;9.642;2023-04-25T01:17:00;2.72;;;2.03;;
78648;SDS011;67962;47.310;9.642;2023-04-25T01:19:26;3.00;;;1.77;;
78648;SDS011;67962;47.310;9.642;2023-04-25T01:21:52;3.20;;;1.85;;
78648;SDS011;67962;47.310;9.642;2023-04-25T01:24:18;5.82;;;2.10;;
78648;SDS011;67962;47.310;9.642;2023-04-25T01:26:44;4.57;;;2.10;;
78648;SDS011;67962;47.310;9.642;2023-04-25T01:29:15;3.88;;;2.30;;
78648;SDS011;67962;47.310;9.642;2023-04-25T01:31:44;2.97;;;1.55;;
78648;SDS011;67962;47.310;9.642;2023-04-25T01:34:11;2.85;;;1.90;;
78648;SDS011;67962;47.310;9.642;2023-04-25T01:36:37;2.58;;;1.90;;
78648;SDS011;67962;47.310;9.642;2023-04-25T01:39:02;3.35;;;2.00;;
78648;SDS011;67962;47.310;9.642;2023-04-25T01:41:28;2.80;;;1.70;;
78648;SDS011;67962;47.310;9.642;2023-04-25T01:43:55;3.22;;;1.95;;
78648;SDS011;67962;47.310;9.642;2023-04-25T01:46:21;4.22;;;1.85;;
78648;SDS011;67962;47.310;9.642;2023-04-25T01:48:46;3.22;;;1.70;;
78648;SDS011;67962;47.310;9.642;2023-04-25T01:51:12;2.88;;;1.60;;
78648;SDS011;67962;47.310;9.642;2023-04-25T01:53:38;3.35;;;1.80;;
78648;SDS011;67962;47.310;9.642;2023-04-25T01:56:04;3.10;;;1.92;;
78648;SDS011;67962;47.310;9.642;2023-04-25T01:58:31;3.22;;;1.70;;
78648;SDS011;67962;47.310;9.642;2023-04-25T02:00:56;3.38;;;1.60;;
78648;SDS011;67962;47.310;9.642;2023-04-25T02:03:22;8.45;;;1.90;;
78648;SDS011;67962;47.310;9.642;2023-04-25T02:05:48;2.90;;;2.05;;
78648;SDS011;67962;47.310;9.642;2023-04-25T02:08:14;2.42;;;1.77;;
78648;SDS011;67962;47.310;9.642;2023-04-25T02:10:41;3.10;;;1.67;;
78648;SDS011;67962;47.310;9.642;2023-04-25T02:13:06;3.88;;;2.00;;
78648;SDS011;67962;47.310;9.642;2023-04-25T02:15:32;3.05;;;1.90;;
78648;SDS011;67962;47.310;9.642;2023-04-25T02:17:58;2.28;;;1.85;;
78648;SDS011;67962;47.310;9.642;2023-04-25T02:20:25;5.68;;;1.70;;
78648;SDS011;67962;47.310;9.642;2023-04-25T02:22:51;5.30;;;2.17;;
78648;SDS011;67962;47.310;9.642;2023-04-25T02:25:18;3.72;;;1.67;;
78648;SDS011;67962;47.310;9.642;2023-04-25T02:27:45;5.95;;;2.00;;
78648;SDS011;67962;47.310;9.642;2023-04-25T02:30:11;3.13;;;1.73;;
78648;SDS011;67962;47.310;9.642;2023-04-25T02:32:38;2.65;;;1.67;;
78648;SDS011;67962;47.310;9.642;2023-04-25T02:35:04;3.38;;;1.65;;
78648;SDS011;67962;47.310;9.642;2023-04-25T02:37:32;3.50;;;1.58;;
78648;SDS011;67962;47.310;9.642;2023-04-25T02:39:59;3.15;;;1.65;;
78648;SDS011;67962;47.310;9.642;2023-04-25T02:42:25;3.47;;;2.10;;
78648;SDS011;67962;47.310;9.642;2023-04-25T02:44:52;3.70;;;2.17;;
78648;SDS011;67962;47.310;9.642;2023-04-25T02:47:17;2.47;;;1.70;;
78648;SDS011;67962;47.310;9.642;2023-04-25T02:49:43;8.23;;;1.85;;
78648;SDS011;67962;47.310;9.642;2023-04-25T02:52:10;2.95;;;1.90;;
78648;SDS011;67962;47.310;9.642;2023-04-25T02:54:36;2.38;;;1.70;;
78648;SDS011;67962;47.310;9.642;2023-04-25T02:57:01;3.60;;;1.60;;
78648;SDS011;67962;47.310;9.642;2023-04-25T02:59:27;3.67;;;1.40;;
78648;SDS011;67962;47.310;9.642;2023-04-25T03:01:53;5.15;;;1.77;;
78648;SDS011;67962;47.310;9.642;2023-04-25T03:04:19;2.20;;;1.45;;
78648;SDS011;67962;47.310;9.642;2023-04-25T03:06:45;3.63;;;1.67;;
78648;SDS011;67962;47.310;9.642;2023-04-25T03:09:11;1.95;;;1.60;;
78648;SDS011;67962;47.310;9.642;2023-04-25T03:11:38;3.95;;;1.85;;
78648;SDS011;67962;47.310;9.642;2023-04-25T03:14:04;2.45;;;1.65;;
78648;SDS011;67962;47.310;9.642;2023-04-25T03:16:30;6.18;;;1.90;;
78648;SDS011;67962;47.310;9.642;2023-04-25T03:18:56;4.80;;;2.08;;
78648;SDS011;67962;47.310;9.642;2023-04-25T03:21:22;3.42;;;2.47;;
78648;SDS011;67962;47.310;9.642;2023-04-25T03:23:48;3.10;;;2.08;;
78648;SDS011;67962;47.310;9.642;2023-04-25T03:26:13;2.00;;;1.70;;
78648;SDS011;67962;47.310;9.642;2023-04-25T03:28:39;4.70;;;2.08;;
78648;SDS011;67962;47.310;9.642;2023-04-25T03:31:05;3.72;;;1.48;;
78648;SDS011;67962;47.310;9.642;2023-04-25T03:33:31;7.95;;;1.90;;
78648;SDS011;67962;47.310;9.642;2023-04-25T03:35:57;2.58;;;1.85;;
78648;SDS011;67962;47.310;9.642;2023-04-25T03:38:22;3.38;;;1.77;;
78648;SDS011;67962;47.310;9.642;2023-04-25T03:40:48;2.72;;;1.90;;
78648;SDS011;67962;47.310;9.642;2023-04-25T03:43:15;5.38;;;1.60;;
78648;SDS011;67962;47.310;9.642;2023-04-25T03:45:41;2.05;;;1.52;;
78648;SDS011;67962;47.310;9.642;2023-04-25T03:48:07;4.53;;;1.67;;
78648;SDS011;67962;47.310;9.642;2023-04-25T03:50:33;2.83;;;1.70;;
78648;SDS011;67962;47.310;9.642;2023-04-25T03:52:59;2.47;;;1.67;;
78648;SDS011;67962;47.310;9.642;2023-04-25T03:55:25;2.47;;;1.50;;
78648;SDS011;67962;47.310;9.642;2023-04-25T03:57:50;2.25;;;1.40;;
78648;SDS011;67962;47.310;9.642;2023-04-25T04:00:16;3.45;;;1.55;;
78648;SDS011;67962;47.310;9.642;2023-04-25T04:02:42;3.03;;;1.48;;
78648;SDS011;67962;47.310;9.642;2023-04-25T04:05:07;2.63;;;1.70;;
78648;SDS011;67962;47.310;9.642;2023-04-25T04:07:34;3.60;;;1.70;;
78648;SDS011;67962;47.310;9.642;2023-04-25T04:10:05;4.60;;;1.65;;
78648;SDS011;67962;47.310;9.642;2023-04-25T04:12:31;2.95;;;1.95;;
78648;SDS011;67962;47.310;9.642;2023-04-25T04:14:57;3.10;;;1.70;;
78648;SDS011;67962;47.310;9.642;2023-04-25T04:17:23;8.98;;;1.73;;
78648;SDS011;67962;47.310;9.642;2023-04-25T04:19:48;7.85;;;1.75;;
78648;SDS011;67962;47.310;9.642;2023-04-25T04:22:14;2.63;;;1.60;;
78648;SDS011;67962;47.310;9.642;2023-04-25T04:24:40;3.47;;;1.75;;
78648;SDS011;67962;47.310;9.642;2023-04-25T04:27:09;3.08;;;1.77;;
78648;SDS011;67962;47.310;9.642;2023-04-25T04:29:35;4.15;;;1.63;;
78648;SDS011;67962;47.310;9.642;2023-04-25T04:32:01;2.83;;;1.73;;
78648;SDS011;67962;47.310;9.642;2023-04-25T04:34:28;3.53;;;1.55;;
78648;SDS011;67962;47.310;9.642;2023-04-25T04:36:54;2.13;;;1.30;;
78648;SDS011;67962;47.310;9.642;2023-04-25T04:39:20;5.32;;;1.70;;
78648;SDS011;67962;47.310;9.642;2023-04-25T04:41:46;3.45;;;1.70;;
78648;SDS011;67962;47.310;9.642;2023-04-25T04:44:12;4.40;;;1.77;;
78648;SDS011;67962;47.310;9.642;2023-04-25T04:46:39;4.88;;;1.92;;
78648;SDS011;67962;47.310;9.642;2023-04-25T04:49:05;4.30;;;2.15;;
78648;SDS011;67962;47.310;9.642;2023-04-25T04:51:31;5.55;;;2.20;;
78648;SDS011;67962;47.310;9.642;2023-04-25T04:53:58;2.15;;;1.67;;
78648;SDS011;67962;47.310;9.642;2023-04-25T04:56:27;4.15;;;2.33;;
78648;SDS011;67962;47.310;9.642;2023-04-25T04:58:56;10.52;;;2.95;;
78648;SDS011;67962;47.310;9.642;2023-04-25T05:01:22;8.63;;;2.97;;
78648;SDS011;67962;47.310;9.642;2023-04-25T05:03:49;6.45;;;2.60;;
78648;SDS011;67962;47.310;9.642;2023-04-25T05:06:16;7.45;;;3.33;;
78648;SDS011;67962;47.310;9.642;2023-04-25T05:08:42;5.97;;;3.10;;
78648;SDS011;67962;47.310;9.642;2023-04-25T05:11:07;4.82;;;2.88;;
78648;SDS011;67962;47.310;9.642;2023-04-25T05:13:33;4.85;;;1.67;;
78648;SDS011;67962;47.310;9.642;2023-04-25T05:15:59;2.75;;;1.73;;
78648;SDS011;67962;47.310;9.642;2023-04-25T05:18:25;6.13;;;2.50;;
78648;SDS011;67962;47.310;9.642;2023-04-25T05:20:51;5.25;;;2.40;;
78648;SDS011;67962;47.310;9.642;2023-04-25T05:23:16;5.55;;;2.40;;
78648;SDS011;67962;47.310;9.642;2023-04-25T05:25:42;3.47;;;1.75;;
78648;SDS011;67962;47.310;9.642;2023-04-25T05:28:08;4.80;;;1.75;;
78648;SDS011;67962;47.310;9.642;2023-04-25T05:30:33;4.05;;;1.80;;
78648;SDS011;67962;47.310;9.642;2023-04-25T05:32:59;4.10;;;1.90;;
78648;SDS011;67962;47.310;9.642;2023-04-25T05:35:25;5.07;;;1.70;;
78648;SDS011;67962;47.310;9.642;2023-04-25T05:37:51;4.07;;;2.00;;
78648;SDS011;67962;47.310;9.642;2023-04-25T05:40:17;10.30;;;2.60;;
78648;SDS011;67962;47.310;9.642;2023-04-25T05:42:42;3.63;;;2.35;;
78648;SDS011;67962;47.310;9.642;2023-04-25T05:45:08;3.33;;;2.22;;
78648;SDS011;67962;47.310;9.642;2023-04-25T05:47:34;8.57;;;2.45;;
78648;SDS011;67962;47.310;9.642;2023-04-25T05:50:00;4.85;;;2.28;;
78648;SDS011;67962;47.310;9.642;2023-04-25T05:52:26;3.92;;;2.38;;
78648;SDS011;67962;47.310;9.642;2023-04-25T05:54:51;3.40;;;1.60;;
78648;SDS011;67962;47.310;9.642;2023-04-25T05:57:21;2.50;;;1.33;;
78648;SDS011;67962;47.310;9.642;2023-04-25T05:59:48;1.90;;;1.27;;
78648;SDS011;67962;47.310;9.642;2023-04-25T06:02:13;2.55;;;1.23;;
78648;SDS011;67962;47.310;9.642;2023-04-25T06:04:39;2.95;;;1.10;;
78648;SDS011;67962;47.310;9.642;2023-04-25T06:07:05;4.75;;;1.40;;
78648;SDS011;67962;47.310;9.642;2023-04-25T06:09:30;3.58;;;1.25;;
78648;SDS011;67962;47.310;9.642;2023-04-25T06:11:56;3.15;;;1.55;;
78648;SDS011;67962;47.310;9.642;2023-04-25T06:14:22;3.05;;;1.70;;
78648;SDS011;67962;47.310;9.642;2023-04-25T06:16:48;2.65;;;1.65;;
78648;SDS011;67962;47.310;9.642;2023-04-25T06:19:13;1.92;;;1.50;;
78648;SDS011;67962;47.310;9.642;2023-04-25T06:21:39;2.58;;;1.23;;
78648;SDS011;67962;47.310;9.642;2023-04-25T06:24:05;5.57;;;1.52;;
78648;SDS011;67962;47.310;9.642;2023-04-25T06:26:30;4.53;;;1.50;;
78648;SDS011;67962;47.310;9.642;2023-04-25T06:28:56;3.70;;;1.38;;
78648;SDS011;67962;47.310;9.642;2023-04-25T06:31:22;4.25;;;1.10;;
78648;SDS011;67962;47.310;9.642;2023-04-25T06:33:47;3.38;;;1.52;;
78648;SDS011;67962;47.310;9.642;2023-04-25T06:36:13;2.10;;;1.10;;
78648;SDS011;67962;47.310;9.642;2023-04-25T06:38:39;3.35;;;1.38;;
78648;SDS011;67962;47.310;9.642;2023-04-25T06:41:05;1.67;;;0.90;;
78648;SDS011;67962;47.310;9.642;2023-04-25T06:43:31;4.50;;;1.17;;
78648;SDS011;67962;47.310;9.642;2023-04-25T06:45:58;2.85;;;1.23;;
78648;SDS011;67962;47.310;9.642;2023-04-25T06:48:26;2.45;;;1.10;;
78648;SDS011;67962;47.310;9.642;2023-04-25T06:50:52;3.70;;;1.08;;
78648;SDS011;67962;47.310;9.642;2023-04-25T06:53:17;8.25;;;1.30;;
78648;SDS011;67962;47.310;9.642;2023-04-25T06:55:43;4.05;;;1.10;;
78648;SDS011;67962;47.310;9.642;2023-04-25T06:58:09;1.58;;;1.30;;
78648;SDS011;67962;47.310;9.642;2023-04-25T07:00:35;1.58;;;1.10;;
78648;SDS011;67962;47.310;9.642;2023-04-25T07:03:01;1.42;;;1.30;;
78648;SDS011;67962;47.310;9.642;2023-04-25T07:05:27;1.38;;;1.00;;
78648;SDS011;67962;47.310;9.642;2023-04-25T07:07:52;2.00;;;0.90;;
78648;SDS011;67962;47.310;9.642;2023-04-25T07:10:18;2.17;;;1.20;;
78648;SDS011;67962;47.310;9.642;2023-04-25T07:12:44;2.15;;;0.95;;
78648;SDS011;67962;47.310;9.642;2023-04-25T07:15:10;4.68;;;1.30;;
78648;SDS011;67962;47.310;9.642;2023-04-25T07:17:36;4.10;;;1.27;;
78648;SDS011;67962;47.310;9.642;2023-04-25T07:20:03;3.55;;;1.38;;
78648;SDS011;67962;47.310;9.642;2023-04-25T07:22:29;1.48;;;0.88;;
78648;SDS011;67962;47.310;9.642;2023-04-25T07:24:55;2.08;;;1.00;;
78648;SDS011;67962;47.310;9.642;2023-04-25T07:27:20;1.55;;;0.98;;
78648;SDS011;67962;47.310;9.642;2023-04-25T07:29:46;1.67;;;0.80;;
78648;SDS011;67962;47.310;9.642;2023-04-25T07:32:12;1.60;;;1.00;;
78648;SDS011;67962;47.310;9.642;2023-04-25T07:34:38;3.53;;;1.20;;
78648;SDS011;67962;47.310;9.642;2023-04-25T07:37:04;2.72;;;1.00;;
78648;SDS011;67962;47.310;9.642;2023-04-25T07:39:31;3.85;;;0.98;;
78648;SDS011;67962;47.310;9.642;2023-04-25T07:41:56;2.33;;;1.20;;
78648;SDS011;67962;47.310;9.642;2023-04-25T07:44:23;2.47;;;1.30;;
78648;SDS011;67962;47.310;9.642;2023-04-25T07:46:50;3.45;;;1.30;;
78648;SDS011;67962;47.310;9.642;2023-04-25T07:49:16;3.33;;;1.40;;
78648;SDS011;67962;47.310;9.642;2023-04-25T07:51:42;3.22;;;1.58;;
78648;SDS011;67962;47.310;9.642;2023-04-25T07:54:13;3.83;;;1.27;;
78648;SDS011;67962;47.310;9.642;2023-04-25T07:56:39;1.65;;;1.10;;
78648;SDS011;67962;47.310;9.642;2023-04-25T07:59:05;2.15;;;0.88;;
78648;SDS011;67962;47.310;9.642;2023-04-25T08:01:31;2.88;;;0.98;;
78648;SDS011;67962;47.310;9.642;2023-04-25T08:03:56;5.90;;;1.38;;
78648;SDS011;67962;47.310;9.642;2023-04-25T08:06:22;2.88;;;1.02;;
78648;SDS011;67962;47.310;9.642;2023-04-25T08:08:48;4.90;;;1.35;;
78648;SDS011;67962;47.310;9.642;2023-04-25T08:11:13;3.00;;;1.15;;
78648;SDS011;67962;47.310;9.642;2023-04-25T08:13:39;1.58;;;1.13;;
78648;SDS011;67962;47.310;9.642;2023-04-25T08:16:05;3.83;;;1.02;;
78648;SDS011;67962;47.310;9.642;2023-04-25T08:18:30;1.95;;;1.30;;
78648;SDS011;67962;47.310;9.642;2023-04-25T08:20:56;1.88;;;1.13;;
78648;SDS011;67962;47.310;9.642;2023-04-25T08:23:22;2.42;;;1.02;;
78648;SDS011;67962;47.310;9.642;2023-04-25T08:25:47;3.63;;;1.30;;
78648;SDS011;67962;47.310;9.642;2023-04-25T08:28:14;3.92;;;1.02;;
78648;SDS011;67962;47.310;9.642;2023-04-25T08:30:40;3.13;;;1.23;;
78648;SDS011;67962;47.310;9.642;2023-04-25T08:33:05;1.85;;;1.00;;
78648;SDS011;67962;47.310;9.642;2023-04-25T08:35:31;1.80;;;1.20;;
78648;SDS011;67962;47.310;9.642;2023-04-25T08:37:58;5.00;;;1.00;;
78648;SDS011;67962;47.310;9.642;2023-04-25T08:40:24;1.85;;;0.90;;
78648;SDS011;67962;47.310;9.642;2023-04-25T08:42:55;1.70;;;1.15;;
78648;SDS011;67962;47.310;9.642;2023-04-25T08:45:23;5.82;;;1.10;;
78648;SDS011;67962;47.310;9.642;2023-04-25T08:47:51;1.63;;;1.17;;
78648;SDS011;67962;47.310;9.642;2023-04-25T08:50:18;2.80;;;1.13;;
78648;SDS011;67962;47.310;9.642;2023-04-25T08:52:46;4.38;;;1.13;;
78648;SDS011;67962;47.310;9.642;2023-04-25T08:55:13;2.30;;;1.45;;
78648;SDS011;67962;47.310;9.642;2023-04-25T08:57:40;1.27;;;0.70;;
78648;SDS011;67962;47.310;9.642;2023-04-25T09:00:10;1.75;;;0.90;;
78648;SDS011;67962;47.310;9.642;2023-04-25T09:02:38;2.92;;;1.50;;
78648;SDS011;67962;47.310;9.642;2023-04-25T09:05:04;2.08;;;1.30;;
78648;SDS011;67962;47.310;9.642;2023-04-25T09:07:32;2.00;;;1.27;;
78648;SDS011;67962;47.310;9.642;2023-04-25T09:09:58;3.20;;;1.25;;
78648;SDS011;67962;47.310;9.642;2023-04-25T09:12:26;1.27;;;1.00;;
78648;SDS011;67962;47.310;9.642;2023-04-25T09:15:06;2.42;;;1.20;;
78648;SDS011;67962;47.310;9.642;2023-04-25T09:17:36;3.78;;;1.52;;
78648;SDS011;67962;47.310;9.642;2023-04-25T09:20:14;2.80;;;1.33;;
78648;SDS011;67962;47.310;9.642;2023-04-25T09:22:40;1.20;;;1.05;;
78648;SDS011;67962;47.310;9.642;2023-04-25T09:25:10;2.92;;;1.40;;
78648;SDS011;67962;47.310;9.642;2023-04-25T09:27:37;2.25;;;1.33;;
78648;SDS011;67962;47.310;9.642;2023-04-25T09:30:16;2.83;;;1.10;;
78648;SDS011;67962;47.310;9.642;2023-04-25T09:32:42;1.50;;;1.08;;
78648;SDS011;67962;47.310;9.642;2023-04-25T09:35:08;1.65;;;1.08;;
78648;SDS011;67962;47.310;9.642;2023-04-25T09:37:35;1.25;;;1.08;;
78648;SDS011;67962;47.310;9.642;2023-04-25T09:40:03;2.13;;;1.30;;
78648;SDS011;67962;47.310;9.642;2023-04-25T09:42:32;2.20;;;1.20;;
78648;SDS011;67962;47.310;9.642;2023-04-25T09:45:00;4.15;;;1.00;;
78648;SDS011;67962;47.310;9.642;2023-04-25T09:47:29;2.00;;;0.90;;
78648;SDS011;67962;47.310;9.642;2023-04-25T09:49:54;2.60;;;0.80;;
78648;SDS011;67962;47.310;9.642;2023-04-25T09:52:21;3.33;;;1.10;;
78648;SDS011;67962;47.310;9.642;2023-04-25T09:54:48;1.30;;;1.10;;
78648;SDS011;67962;47.310;9.642;2023-04-25T09:59:48;1.55;;;1.13;;
78648;SDS011;67962;47.310;9.642;2023-04-25T10:02:19;2.47;;;1.00;;
78648;SDS011;67962;47.310;9.642;2023-04-25T10:04:51;1.25;;;0.68;;
78648;SDS011;67962;47.310;9.642;2023-04-25T10:07:20;1.98;;;0.90;;
78648;SDS011;67962;47.310;9.642;2023-04-25T10:09:50;1.80;;;1.00;;
78648;SDS011;67962;47.310;9.642;2023-04-25T10:12:28;0.60;;;0.60;;
78648;SDS011;67962;47.310;9.642;2023-04-25T10:14:56;0.52;;;0.50;;
78648;SDS011;67962;47.310;9.642;2023-04-25T10:17:23;0.63;;;0.50;;
78648;SDS011;67962;47.310;9.642;2023-04-25T10:19:52;2.22;;;0.55;;
78648;SDS011;67962;47.310;9.642;2023-04-25T10:22:38;0.68;;;0.45;;
78648;SDS011;67962;47.310;9.642;2023-04-25T10:25:06;0.60;;;0.40;;
78648;SDS011;67962;47.310;9.642;2023-04-25T10:27:33;0.40;;;0.40;;
78648;SDS011;67962;47.310;9.642;2023-04-25T10:30:07;0.60;;;0.50;;
78648;SDS011;67962;47.310;9.642;2023-04-25T10:32:39;0.55;;;0.43;;
78648;SDS011;67962;47.310;9.642;2023-04-25T10:35:25;0.50;;;0.40;;
78648;SDS011;67962;47.310;9.642;2023-04-25T10:38:10;0.50;;;0.40;;
78648;SDS011;67962;47.310;9.642;2023-04-25T10:40:39;1.02;;;0.50;;
78648;SDS011;67962;47.310;9.642;2023-04-25T10:45:55;0.80;;;0.50;;
78648;SDS011;67962;47.310;9.642;2023-04-25T10:48:25;1.30;;;0.60;;
78648;SDS011;67962;47.310;9.642;2023-04-25T10:51:06;0.70;;;0.40;;
78648;SDS011;67962;47.310;9.642;2023-04-25T10:53:33;2.58;;;0.63;;
78648;SDS011;67962;47.310;9.642;2023-04-25T10:55:59;0.43;;;0.43;;
78648;SDS011;67962;47.310;9.642;2023-04-25T10:58:25;0.70;;;0.50;;
78648;SDS011;67962;47.310;9.642;2023-04-25T11:00:51;1.00;;;0.50;;
78648;SDS011;67962;47.310;9.642;2023-04-25T11:03:17;0.57;;;0.47;;
78648;SDS011;67962;47.310;9.642;2023-04-25T11:05:46;3.47;;;0.70;;
78648;SDS011;67962;47.310;9.642;2023-04-25T11:08:14;0.60;;;0.55;;
78648;SDS011;67962;47.310;9.642;2023-04-25T11:10:52;1.35;;;0.60;;
78648;SDS011;67962;47.310;9.642;2023-04-25T11:13:20;0.60;;;0.50;;
78648;SDS011;67962;47.310;9.642;2023-04-25T11:15:50;2.17;;;0.60;;
78648;SDS011;67962;47.310;9.642;2023-04-25T11:18:16;1.90;;;0.70;;
78648;SDS011;67962;47.310;9.642;2023-04-25T11:20:43;0.90;;;0.80;;
78648;SDS011;67962;47.310;9.642;2023-04-25T11:23:08;0.98;;;0.60;;
78648;SDS011;67962;47.310;9.642;2023-04-25T11:25:34;1.95;;;0.75;;
78648;SDS011;67962;47.310;9.642;2023-04-25T11:28:01;2.92;;;0.88;;
78648;SDS011;67962;47.310;9.642;2023-04-25T11:30:28;2.47;;;1.00;;
78648;SDS011;67962;47.310;9.642;2023-04-25T11:32:55;2.78;;;0.90;;
78648;SDS011;67962;47.310;9.642;2023-04-25T11:35:21;1.27;;;0.70;;
78648;SDS011;67962;47.310;9.642;2023-04-25T11:37:48;1.00;;;0.60;;
78648;SDS011;67962;47.310;9.642;2023-04-25T11:40:14;1.65;;;0.93;;
78648;SDS011;67962;47.310;9.642;2023-04-25T11:42:43;3.10;;;1.10;;
78648;SDS011;67962;47.310;9.642;2023-04-25T11:45:10;1.50;;;0.80;;
78648;SDS011;67962;47.310;9.642;2023-04-25T11:47:37;2.70;;;1.00;;
78648;SDS011;67962;47.310;9.642;2023-04-25T11:50:03;3.45;;;1.10;;
78648;SDS011;67962;47.310;9.642;2023-04-25T11:52:49;0.70;;;0.70;;
78648;SDS011;67962;47.310;9.642;2023-04-25T11:55:18;1.02;;;0.60;;
78648;SDS011;67962;47.310;9.642;2023-04-25T11:57:46;1.73;;;0.50;;
78648;SDS011;67962;47.310;9.642;2023-04-25T12:00:15;0.50;;;0.43;;
78648;SDS011;67962;47.310;9.642;2023-04-25T12:02:42;0.50;;;0.50;;
78648;SDS011;67962;47.310;9.642;2023-04-25T12:05:09;1.40;;;0.85;;
78648;SDS011;67962;47.310;9.642;2023-04-25T12:07:36;0.95;;;0.70;;
78648;SDS011;67962;47.310;9.642;2023-04-25T12:10:09;0.90;;;0.68;;
78648;SDS011;67962;47.310;9.642;2023-04-25T12:12:37;0.82;;;0.50;;
78648;SDS011;67962;47.310;9.642;2023-04-25T12:15:22;0.88;;;0.50;;
78648;SDS011;67962;47.310;9.642;2023-04-25T12:17:50;0.63;;;0.45;;
78648;SDS011;67962;47.310;9.642;2023-04-25T12:20:18;1.38;;;0.47;;
78648;SDS011;67962;47.310;9.642;2023-04-25T12:22:46;0.60;;;0.30;;
78648;SDS011;67962;47.310;9.642;2023-04-25T12:33:18;0.50;;;0.40;;
78648;SDS011;67962;47.310;9.642;2023-04-25T12:35:44;0.40;;;0.40;;
78648;SDS011;67962;47.310;9.642;2023-04-25T12:38:09;4.05;;;0.40;;
78648;SDS011;67962;47.310;9.642;2023-04-25T12:40:35;0.55;;;0.38;;
78648;SDS011;67962;47.310;9.642;2023-04-25T12:43:01;1.27;;;0.43;;
78648;SDS011;67962;47.310;9.642;2023-04-25T12:45:26;0.80;;;0.68;;
78648;SDS011;67962;47.310;9.642;2023-04-25T12:47:52;0.77;;;0.50;;
78648;SDS011;67962;47.310;9.642;2023-04-25T12:50:18;0.32;;;0.30;;
78648;SDS011;67962;47.310;9.642;2023-04-25T12:52:43;1.20;;;0.50;;
78648;SDS011;67962;47.310;9.642;2023-04-25T12:55:09;2.17;;;0.50;;
78648;SDS011;67962;47.310;9.642;2023-04-25T12:57:35;0.65;;;0.40;;
78648;SDS011;67962;47.310;9.642;2023-04-25T13:00:00;1.33;;;0.52;;
78648;SDS011;67962;47.310;9.642;2023-04-25T13:02:26;0.68;;;0.38;;
78648;SDS011;67962;47.310;9.642;2023-04-25T13:04:52;0.47;;;0.43;;
78648;SDS011;67962;47.310;9.642;2023-04-25T13:07:18;0.77;;;0.60;;
78648;SDS011;67962;47.310;9.642;2023-04-25T13:09:43;1.13;;;0.70;;
78648;SDS011;67962;47.310;9.642;2023-04-25T13:12:09;0.80;;;0.40;;
78648;SDS011;67962;47.310;9.642;2023-04-25T13:14:35;0.73;;;0.40;;
78648;SDS011;67962;47.310;9.642;2023-04-25T13:17:00;0.93;;;0.40;;
78648;SDS011;67962;47.310;9.642;2023-04-25T13:19:26;0.40;;;0.30;;
78648;SDS011;67962;47.310;9.642;2023-04-25T13:21:52;0.85;;;0.60;;
78648;SDS011;67962;47.310;9.642;2023-04-25T13:24:17;0.55;;;0.47;;
78648;SDS011;67962;47.310;9.642;2023-04-25T13:26:43;0.55;;;0.40;;
78648;SDS011;67962;47.310;9.642;2023-04-25T13:29:09;0.40;;;0.30;;
78648;SDS011;67962;47.310;9.642;2023-04-25T13:31:34;0.45;;;0.40;;
78648;SDS011;67962;47.310;9.642;2023-04-25T13:34:00;3.28;;;0.50;;
78648;SDS011;67962;47.310;9.642;2023-04-25T13:36:26;0.60;;;0.40;;
78648;SDS011;67962;47.310;9.642;2023-04-25T13:38:52;0.65;;;0.40;;
78648;SDS011;67962;47.310;9.642;2023-04-25T13:41:18;1.77;;;0.50;;
78648;SDS011;67962;47.310;9.642;2023-04-25T13:43:46;0.70;;;0.50;;
78648;SDS011;67962;47.310;9.642;2023-04-25T13:46:12;1.30;;;0.45;;
78648;SDS011;67962;47.310;9.642;2023-04-25T13:48:40;0.88;;;0.50;;
78648;SDS011;67962;47.310;9.642;2023-04-25T13:51:11;0.65;;;0.55;;
78648;SDS011;67962;47.310;9.642;2023-04-25T13:53:37;7.00;;;3.60;;
78648;SDS011;67962;47.310;9.642;2023-04-25T13:56:03;0.40;;;0.40;;
78648;SDS011;67962;47.310;9.642;2023-04-25T13:58:29;0.32;;;0.32;;
78648;SDS011;67962;47.310;9.642;2023-04-25T14:00:55;1.80;;;0.70;;
78648;SDS011;67962;47.310;9.642;2023-04-25T14:03:21;0.95;;;0.70;;
78648;SDS011;67962;47.310;9.642;2023-04-25T14:05:46;0.70;;;0.63;;
78648;SDS011;67962;47.310;9.642;2023-04-25T14:08:14;2.15;;;0.63;;
78648;SDS011;67962;47.310;9.642;2023-04-25T14:10:39;0.65;;;0.52;;
78648;SDS011;67962;47.310;9.642;2023-04-25T14:13:05;1.65;;;0.60;;
78648;SDS011;67962;47.310;9.642;2023-04-25T14:15:31;5.47;;;0.60;;
78648;SDS011;67962;47.310;9.642;2023-04-25T14:17:58;1.27;;;0.55;;
78648;SDS011;67962;47.310;9.642;2023-04-25T14:20:24;1.02;;;0.70;;
78648;SDS011;67962;47.310;9.642;2023-04-25T14:22:51;2.80;;;0.47;;
78648;SDS011;67962;47.310;9.642;2023-04-25T14:25:19;0.82;;;0.55;;
78648;SDS011;67962;47.310;9.642;2023-04-25T14:27:45;1.67;;;0.60;;
78648;SDS011;67962;47.310;9.642;2023-04-25T14:30:14;0.60;;;0.45;;
78648;SDS011;67962;47.310;9.642;2023-04-25T14:32:41;1.13;;;0.68;;
78648;SDS011;67962;47.310;9.642;2023-04-25T14:35:06;0.55;;;0.52;;
78648;SDS011;67962;47.310;9.642;2023-04-25T14:37:32;0.47;;;0.47;;
78648;SDS011;67962;47.310;9.642;2023-04-25T14:39:58;0.40;;;0.40;;
78648;SDS011;67962;47.310;9.642;2023-04-25T14:42:24;0.70;;;0.57;;
78648;SDS011;67962;47.310;9.642;2023-04-25T14:44:50;1.48;;;0.70;;
78648;SDS011;67962;47.310;9.642;2023-04-25T14:47:16;1.20;;;0.70;;
78648;SDS011;67962;47.310;9.642;2023-04-25T14:49:42;3.33;;;1.48;;
78648;SDS011;67962;47.310;9.642;2023-04-25T14:52:08;3.35;;;1.90;;
78648;SDS011;67962;47.310;9.642;2023-04-25T14:54:34;0.80;;;0.60;;
78648;SDS011;67962;47.310;9.642;2023-04-25T14:57:00;0.52;;;0.50;;
78648;SDS011;67962;47.310;9.642;2023-04-25T14:59:26;1.00;;;0.50;;